sensor_id;sensor_type;location;lat;lon;timestamp;temperature;humidity
9987;DHT22;5033;46.310;11.214;2023-08-30T00:01:03;17.20;99.90
9987;DHT22;5033;46.310;11.214;2023-08-30T00:03:30;17.10;99.90
9987;DHT22;5033;46.310;11.214;2023-08-30T00:06:02;17.10;99.90
9987;DHT22;5033;46.310;11.214;2023-08-30T00:08:29;17.10;99.90
9987;DHT22;5033;46.310;11.214;2023-08-30T00:10:56;17.00;99.90
9987;DHT22;5033;46.310;11.214;2023-08-30T00:13:24;16.90;99.90
9987;DHT22;5033;46.310;11.214;2023-08-30T00:15:51;16.90;99.90
9987;DHT22;5033;46.310;11.214;2023-08-30T00:18:19;16.90;99.90
9987;DHT22;5033;46.310;11.214;2023-08-30T00:20:46;16.90;99.90
9987;DHT22;5033;46.310;11.214;2023-08-30T00:23:13;16.90;99.90
9987;DHT22;5033;46.310;11.214;2023-08-30T00:25:40;16.80;99.90
9987;DHT22;5033;46.310;11.214;2023-08-30T00:28:07;16.80;99.90
9987;DHT22;5033;46.310;11.214;2023-08-30T00:30:34;16.80;99.90
9987;DHT22;5033;46.310;11.214;2023-08-30T00:33:01;16.70;99.90
9987;DHT22;5033;46.310;11.214;2023-08-30T00:35:30;16.70;99.90
9987;DHT22;5033;46.310;11.214;2023-08-30T00:37:56;16.70;99.90
9987;DHT22;5033;46.310;11.214;2023-08-30T00:40:23;16.70;99.90
9987;DHT22;5033;46.310;11.214;2023-08-30T00:42:51;16.70;99.90
9987;DHT22;5033;46.310;11.214;2023-08-30T00:45:18;16.70;99.90
9987;DHT22;5033;46.310;11.214;2023-08-30T00:47:45;16.70;99.90
9987;DHT22;5033;46.310;11.214;2023-08-30T00:50:13;16.70;99.90
9987;DHT22;5033;46.310;11.214;2023-08-30T00:52:44;16.70;99.90
9987;DHT22;5033;46.310;11.214;2023-08-30T00:55:11;16.70;99.90
9987;DHT22;5033;46.310;11.214;2023-08-30T00:57:38;16.70;99.90
9987;DHT22;5033;46.310;11.214;2023-08-30T01:00:08;16.70;99.90
9987;DHT22;5033;46.310;11.214;2023-08-30T01:02:36;16.70;99.90
9987;DHT22;5033;46.310;11.214;2023-08-30T01:05:03;16.80;99.90
9987;DHT22;5033;46.310;11.214;2023-08-30T01:07:30;16.80;99.90
9987;DHT22;5033;46.310;11.214;2023-08-30T01:09:59;16.80;99.90
9987;DHT22;5033;46.310;11.214;2023-08-30T01:12:31;16.80;99.90
9987;DHT22;5033;46.310;11.214;2023-08-30T01:15:08;16.80;99.90
9987;DHT22;5033;46.310;11.214;2023-08-30T01:17:36;16.90;99.90
9987;DHT22;5033;46.310;11.214;2023-08-30T01:20:05;16.90;99.90
9987;DHT22;5033;46.310;11.214;2023-08-30T01:22:43;16.90;99.90
9987;DHT22;5033;46.310;11.214;2023-08-30T01:25:25;16.80;99.90
9987;DHT22;5033;46.310;11.214;2023-08-30T01:27:55;16.80;99.90
9987;DHT22;5033;46.310;11.214;2023-08-30T01:30:24;16.80;99.90
9987;DHT22;5033;46.310;11.214;2023-08-30T01:32:53;16.80;99.90
9987;DHT22;5033;46.310;11.214;2023-08-30T01:35:23;16.70;99.90
9987;DHT22;5033;46.310;11.214;2023-08-30T01:37:51;16.70;99.90
9987;DHT22;5033;46.310;11.214;2023-08-30T01:40:20;16.60;99.90
9987;DHT22;5033;46.310;11.214;2023-08-30T01:42:47;16.60;99.90
9987;DHT22;5033;46.310;11.214;2023-08-30T01:45:17;16.60;99.90
9987;DHT22;5033;46.310;11.214;2023-08-30T01:47:45;16.60;99.90
9987;DHT22;5033;46.310;11.214;2023-08-30T01:50:12;16.60;99.90
9987;DHT22;5033;46.310;11.214;2023-08-30T01:52:40;16.60;99.90
9987;DHT22;5033;46.310;11.214;2023-08-30T01:55:08;16.60;99.90
9987;DHT22;5033;46.310;11.214;2023-08-30T01:57:35;16.50;99.90
9987;DHT22;5033;46.310;11.214;2023-08-30T02:00:03;16.50;99.90
9987;DHT22;5033;46.310;11.214;2023-08-30T02:02:34;16.50;99.90
9987;DHT22;5033;46.310;11.214;2023-08-30T02:05:01;16.60;99.90
9987;DHT22;5033;46.310;11.214;2023-08-30T02:07:35;16.60;99.90
9987;DHT22;5033;46.310;11.214;2023-08-30T02:10:07;16.60;99.90
9987;DHT22;5033;46.310;11.214;2023-08-30T02:12:40;16.60;99.90
9987;DHT22;5033;46.310;11.214;2023-08-30T02:15:10;16.60;99.90
9987;DHT22;5033;46.310;11.214;2023-08-30T02:17:39;16.50;99.90
9987;DHT22;5033;46.310;11.214;2023-08-30T02:20:07;16.40;99.90
9987;DHT22;5033;46.310;11.214;2023-08-30T02:22:34;16.40;99.90
9987;DHT22;5033;46.310;11.214;2023-08-30T02:25:01;16.30;99.90
9987;DHT22;5033;46.310;11.214;2023-08-30T02:27:30;16.20;99.90
9987;DHT22;5033;46.310;11.214;2023-08-30T02:29:57;16.20;99.90
9987;DHT22;5033;46.310;11.214;2023-08-30T02:32:24;16.20;99.90
9987;DHT22;5033;46.310;11.214;2023-08-30T02:34:53;16.30;99.90
9987;DHT22;5033;46.310;11.214;2023-08-30T02:37:20;16.30;99.90
9987;DHT22;5033;46.310;11.214;2023-08-30T02:39:47;16.30;99.90
9987;DHT22;5033;46.310;11.214;2023-08-30T02:42:14;16.30;99.90
9987;DHT22;5033;46.310;11.214;2023-08-30T02:44:41;16.30;99.90
9987;DHT22;5033;46.310;11.214;2023-08-30T02:47:08;16.30;99.90
9987;DHT22;5033;46.310;11.214;2023-08-30T02:49:34;16.40;99.90
9987;DHT22;5033;46.310;11.214;2023-08-30T02:52:03;16.40;99.90
9987;DHT22;5033;46.310;11.214;2023-08-30T02:54:30;16.40;99.90
9987;DHT22;5033;46.310;11.214;2023-08-30T02:56:56;16.40;99.90
9987;DHT22;5033;46.310;11.214;2023-08-30T02:59:23;16.40;99.90
9987;DHT22;5033;46.310;11.214;2023-08-30T03:01:50;16.40;99.90
9987;DHT22;5033;46.310;11.214;2023-08-30T03:04:17;16.40;99.90
9987;DHT22;5033;46.310;11.214;2023-08-30T03:06:44;16.40;99.90
9987;DHT22;5033;46.310;11.214;2023-08-30T03:09:13;16.40;99.90
9987;DHT22;5033;46.310;11.214;2023-08-30T03:11:40;16.40;99.90
9987;DHT22;5033;46.310;11.214;2023-08-30T03:14:07;16.40;99.90
9987;DHT22;5033;46.310;11.214;2023-08-30T03:16:33;16.40;99.90
9987;DHT22;5033;46.310;11.214;2023-08-30T03:19:01;16.30;99.90
9987;DHT22;5033;46.310;11.214;2023-08-30T03:21:28;16.30;99.90
9987;DHT22;5033;46.310;11.214;2023-08-30T03:23:55;16.30;99.90
9987;DHT22;5033;46.310;11.214;2023-08-30T03:26:23;16.30;99.90
9987;DHT22;5033;46.310;11.214;2023-08-30T03:28:50;16.30;99.90
9987;DHT22;5033;46.310;11.214;2023-08-30T03:31:18;16.30;99.90
9987;DHT22;5033;46.310;11.214;2023-08-30T03:33:46;16.30;99.90
9987;DHT22;5033;46.310;11.214;2023-08-30T03:36:14;16.30;99.90
9987;DHT22;5033;46.310;11.214;2023-08-30T03:38:42;16.30;99.90
9987;DHT22;5033;46.310;11.214;2023-08-30T03:41:10;16.30;99.90
9987;DHT22;5033;46.310;11.214;2023-08-30T03:43:38;16.30;99.90
9987;DHT22;5033;46.310;11.214;2023-08-30T03:46:05;16.20;99.90
9987;DHT22;5033;46.310;11.214;2023-08-30T03:48:32;16.20;99.90
9987;DHT22;5033;46.310;11.214;2023-08-30T03:50:59;16.20;99.90
9987;DHT22;5033;46.310;11.214;2023-08-30T03:53:26;16.20;99.90
9987;DHT22;5033;46.310;11.214;2023-08-30T03:55:54;16.10;99.90
9987;DHT22;5033;46.310;11.214;2023-08-30T03:58:21;16.10;99.90
9987;DHT22;5033;46.310;11.214;2023-08-30T04:00:50;16.00;99.90
9987;DHT22;5033;46.310;11.214;2023-08-30T04:03:17;16.00;99.90
9987;DHT22;5033;46.310;11.214;2023-08-30T04:05:44;16.00;99.90
9987;DHT22;5033;46.310;11.214;2023-08-30T04:08:10;16.00;99.90
9987;DHT22;5033;46.310;11.214;2023-08-30T04:10:38;16.00;99.90
9987;DHT22;5033;46.310;11.214;2023-08-30T04:13:06;15.90;99.90
9987;DHT22;5033;46.310;11.214;2023-08-30T04:15:33;15.90;99.90
9987;DHT22;5033;46.310;11.214;2023-08-30T04:18:02;15.90;99.90
9987;DHT22;5033;46.310;11.214;2023-08-30T04:20:29;15.90;99.90
9987;DHT22;5033;46.310;11.214;2023-08-30T04:22:58;15.90;99.90
9987;DHT22;5033;46.310;11.214;2023-08-30T04:25:27;15.80;99.90
9987;DHT22;5033;46.310;11.214;2023-08-30T04:27:54;15.80;99.90
9987;DHT22;5033;46.310;11.214;2023-08-30T04:30:21;15.90;99.90
9987;DHT22;5033;46.310;11.214;2023-08-30T04:32:48;15.90;99.90
9987;DHT22;5033;46.310;11.214;2023-08-30T04:35:17;15.90;99.90
9987;DHT22;5033;46.310;11.214;2023-08-30T04:37:44;15.90;99.90
9987;DHT22;5033;46.310;11.214;2023-08-30T04:40:11;15.90;99.90
9987;DHT22;5033;46.310;11.214;2023-08-30T04:42:38;15.90;99.90
9987;DHT22;5033;46.310;11.214;2023-08-30T04:45:07;15.90;99.90
9987;DHT22;5033;46.310;11.214;2023-08-30T04:47:35;15.90;99.90
9987;DHT22;5033;46.310;11.214;2023-08-30T04:50:02;15.90;99.90
9987;DHT22;5033;46.310;11.214;2023-08-30T04:52:31;15.90;99.90
9987;DHT22;5033;46.310;11.214;2023-08-30T04:54:58;15.90;99.90
9987;DHT22;5033;46.310;11.214;2023-08-30T04:57:25;15.90;99.90
9987;DHT22;5033;46.310;11.214;2023-08-30T04:59:53;15.90;99.90
9987;DHT22;5033;46.310;11.214;2023-08-30T05:02:20;15.90;99.90
9987;DHT22;5033;46.310;11.214;2023-08-30T05:04:46;15.90;99.90
9987;DHT22;5033;46.310;11.214;2023-08-30T05:07:13;15.90;99.90
9987;DHT22;5033;46.310;11.214;2023-08-30T05:09:42;15.90;99.90
9987;DHT22;5033;46.310;11.214;2023-08-30T05:12:09;15.90;99.90
9987;DHT22;5033;46.310;11.214;2023-08-30T05:14:36;15.90;99.90
9987;DHT22;5033;46.310;11.214;2023-08-30T05:17:03;15.90;99.90
9987;DHT22;5033;46.310;11.214;2023-08-30T05:19:30;15.80;99.90
9987;DHT22;5033;46.310;11.214;2023-08-30T05:21:57;15.80;99.90
9987;DHT22;5033;46.310;11.214;2023-08-30T05:24:23;15.80;99.90
9987;DHT22;5033;46.310;11.214;2023-08-30T05:26:53;15.80;99.90
9987;DHT22;5033;46.310;11.214;2023-08-30T05:29:20;15.90;99.90
9987;DHT22;5033;46.310;11.214;2023-08-30T05:31:47;16.00;99.90
9987;DHT22;5033;46.310;11.214;2023-08-30T05:34:14;16.00;99.90
9987;DHT22;5033;46.310;11.214;2023-08-30T05:36:41;16.10;99.90
9987;DHT22;5033;46.310;11.214;2023-08-30T05:39:08;16.10;99.90
9987;DHT22;5033;46.310;11.214;2023-08-30T05:41:35;16.20;99.90
9987;DHT22;5033;46.310;11.214;2023-08-30T05:44:04;16.30;99.90
9987;DHT22;5033;46.310;11.214;2023-08-30T05:46:31;16.30;99.90
9987;DHT22;5033;46.310;11.214;2023-08-30T05:48:58;16.40;99.90
9987;DHT22;5033;46.310;11.214;2023-08-30T05:51:26;16.40;99.90
9987;DHT22;5033;46.310;11.214;2023-08-30T05:53:53;16.50;99.90
9987;DHT22;5033;46.310;11.214;2023-08-30T05:56:20;16.60;99.90
9987;DHT22;5033;46.310;11.214;2023-08-30T05:58:47;16.50;99.90
9987;DHT22;5033;46.310;11.214;2023-08-30T06:01:18;16.50;99.90
9987;DHT22;5033;46.310;11.214;2023-08-30T06:03:45;16.70;99.90
9987;DHT22;5033;46.310;11.214;2023-08-30T06:06:12;16.70;99.90
9987;DHT22;5033;46.310;11.214;2023-08-30T06:08:39;16.60;99.90
9987;DHT22;5033;46.310;11.214;2023-08-30T06:11:06;16.70;99.90
9987;DHT22;5033;46.310;11.214;2023-08-30T06:13:33;16.90;99.90
9987;DHT22;5033;46.310;11.214;2023-08-30T06:16:00;17.10;99.90
9987;DHT22;5033;46.310;11.214;2023-08-30T06:18:31;17.20;99.90
9987;DHT22;5033;46.310;11.214;2023-08-30T06:20:58;17.20;99.90
9987;DHT22;5033;46.310;11.214;2023-08-30T06:23:25;17.10;99.90
9987;DHT22;5033;46.310;11.214;2023-08-30T06:25:55;17.10;99.90
9987;DHT22;5033;46.310;11.214;2023-08-30T06:28:23;17.20;99.90
9987;DHT22;5033;46.310;11.214;2023-08-30T06:30:50;17.20;99.90
9987;DHT22;5033;46.310;11.214;2023-08-30T06:33:17;17.10;99.90
9987;DHT22;5033;46.310;11.214;2023-08-30T06:35:47;17.10;99.90
9987;DHT22;5033;46.310;11.214;2023-08-30T06:38:14;17.00;99.90
9987;DHT22;5033;46.310;11.214;2023-08-30T06:40:43;17.10;99.90
9987;DHT22;5033;46.310;11.214;2023-08-30T06:43:11;17.20;99.90
9987;DHT22;5033;46.310;11.214;2023-08-30T06:45:38;17.30;99.90
9987;DHT22;5033;46.310;11.214;2023-08-30T06:48:06;17.40;99.90
9987;DHT22;5033;46.310;11.214;2023-08-30T06:50:34;17.50;99.90
9987;DHT22;5033;46.310;11.214;2023-08-30T06:53:02;17.60;99.90
9987;DHT22;5033;46.310;11.214;2023-08-30T06:55:29;17.60;99.90
9987;DHT22;5033;46.310;11.214;2023-08-30T06:57:58;17.70;99.90
9987;DHT22;5033;46.310;11.214;2023-08-30T07:00:25;17.80;99.90
9987;DHT22;5033;46.310;11.214;2023-08-30T07:02:52;17.80;99.90
9987;DHT22;5033;46.310;11.214;2023-08-30T07:05:19;17.90;99.90
9987;DHT22;5033;46.310;11.214;2023-08-30T07:07:46;18.00;99.90
9987;DHT22;5033;46.310;11.214;2023-08-30T07:10:14;17.90;99.90
9987;DHT22;5033;46.310;11.214;2023-08-30T07:12:41;18.00;99.90
9987;DHT22;5033;46.310;11.214;2023-08-30T07:15:08;18.00;99.90
9987;DHT22;5033;46.310;11.214;2023-08-30T07:17:36;18.20;99.90
9987;DHT22;5033;46.310;11.214;2023-08-30T07:20:03;18.30;99.90
9987;DHT22;5033;46.310;11.214;2023-08-30T07:22:34;18.50;99.90
9987;DHT22;5033;46.310;11.214;2023-08-30T07:25:01;18.90;99.90
9987;DHT22;5033;46.310;11.214;2023-08-30T07:27:30;19.10;99.90
9987;DHT22;5033;46.310;11.214;2023-08-30T07:29:56;19.30;99.90
9987;DHT22;5033;46.310;11.214;2023-08-30T07:32:23;19.40;99.90
9987;DHT22;5033;46.310;11.214;2023-08-30T07:34:50;19.60;99.90
9987;DHT22;5033;46.310;11.214;2023-08-30T07:37:18;19.70;99.90
9987;DHT22;5033;46.310;11.214;2023-08-30T07:39:46;19.70;99.90
9987;DHT22;5033;46.310;11.214;2023-08-30T07:42:13;19.60;99.90
9987;DHT22;5033;46.310;11.214;2023-08-30T07:44:42;19.40;99.90
9987;DHT22;5033;46.310;11.214;2023-08-30T07:47:09;19.30;99.90
9987;DHT22;5033;46.310;11.214;2023-08-30T07:49:36;19.20;99.90
9987;DHT22;5033;46.310;11.214;2023-08-30T07:52:03;19.10;99.90
9987;DHT22;5033;46.310;11.214;2023-08-30T07:54:31;19.10;99.90
9987;DHT22;5033;46.310;11.214;2023-08-30T07:56:58;19.20;99.90
9987;DHT22;5033;46.310;11.214;2023-08-30T07:59:25;19.30;99.90
9987;DHT22;5033;46.310;11.214;2023-08-30T08:01:53;19.30;99.90
9987;DHT22;5033;46.310;11.214;2023-08-30T08:04:20;19.40;99.90
9987;DHT22;5033;46.310;11.214;2023-08-30T08:06:47;19.40;99.90
9987;DHT22;5033;46.310;11.214;2023-08-30T08:09:14;19.50;99.90
9987;DHT22;5033;46.310;11.214;2023-08-30T08:11:41;19.50;99.90
9987;DHT22;5033;46.310;11.214;2023-08-30T08:14:09;19.50;99.90
9987;DHT22;5033;46.310;11.214;2023-08-30T08:16:37;19.60;99.90
9987;DHT22;5033;46.310;11.214;2023-08-30T08:19:05;19.70;99.90
9987;DHT22;5033;46.310;11.214;2023-08-30T08:21:32;19.80;99.90
9987;DHT22;5033;46.310;11.214;2023-08-30T08:23:59;19.90;99.90
9987;DHT22;5033;46.310;11.214;2023-08-30T08:26:27;20.00;99.90
9987;DHT22;5033;46.310;11.214;2023-08-30T08:28:54;20.10;99.90
9987;DHT22;5033;46.310;11.214;2023-08-30T08:31:21;20.10;99.90
9987;DHT22;5033;46.310;11.214;2023-08-30T08:33:51;20.30;99.90
9987;DHT22;5033;46.310;11.214;2023-08-30T08:36:20;20.50;99.90
9987;DHT22;5033;46.310;11.214;2023-08-30T08:38:47;20.50;99.90
9987;DHT22;5033;46.310;11.214;2023-08-30T08:41:16;20.60;99.90
9987;DHT22;5033;46.310;11.214;2023-08-30T08:43:43;20.70;99.90
9987;DHT22;5033;46.310;11.214;2023-08-30T08:46:13;20.80;99.90
9987;DHT22;5033;46.310;11.214;2023-08-30T08:48:43;20.90;99.90
9987;DHT22;5033;46.310;11.214;2023-08-30T08:51:11;21.00;99.90
9987;DHT22;5033;46.310;11.214;2023-08-30T08:53:41;21.10;99.90
9987;DHT22;5033;46.310;11.214;2023-08-30T08:56:09;21.10;99.90
9987;DHT22;5033;46.310;11.214;2023-08-30T08:58:36;21.30;99.90
9987;DHT22;5033;46.310;11.214;2023-08-30T09:01:04;21.30;99.90
9987;DHT22;5033;46.310;11.214;2023-08-30T09:03:33;21.20;99.90
9987;DHT22;5033;46.310;11.214;2023-08-30T09:06:02;21.20;99.90
9987;DHT22;5033;46.310;11.214;2023-08-30T09:08:29;21.20;99.90
9987;DHT22;5033;46.310;11.214;2023-08-30T09:10:57;21.40;99.90
9987;DHT22;5033;46.310;11.214;2023-08-30T09:13:24;21.40;99.90
9987;DHT22;5033;46.310;11.214;2023-08-30T09:15:51;21.60;99.90
9987;DHT22;5033;46.310;11.214;2023-08-30T09:18:19;21.90;99.90
9987;DHT22;5033;46.310;11.214;2023-08-30T09:20:45;22.00;99.90
9987;DHT22;5033;46.310;11.214;2023-08-30T09:23:17;22.20;99.90
9987;DHT22;5033;46.310;11.214;2023-08-30T09:25:44;22.40;99.90
9987;DHT22;5033;46.310;11.214;2023-08-30T09:28:13;22.40;99.90
9987;DHT22;5033;46.310;11.214;2023-08-30T09:30:40;22.40;99.90
9987;DHT22;5033;46.310;11.214;2023-08-30T09:33:07;22.30;99.90
9987;DHT22;5033;46.310;11.214;2023-08-30T09:35:43;22.30;99.90
9987;DHT22;5033;46.310;11.214;2023-08-30T09:38:16;22.30;99.90
9987;DHT22;5033;46.310;11.214;2023-08-30T09:40:44;22.20;99.90
9987;DHT22;5033;46.310;11.214;2023-08-30T09:43:13;22.20;99.90
9987;DHT22;5033;46.310;11.214;2023-08-30T09:45:40;22.20;99.90
9987;DHT22;5033;46.310;11.214;2023-08-30T09:48:08;22.20;99.90
9987;DHT22;5033;46.310;11.214;2023-08-30T09:50:35;22.30;99.90
9987;DHT22;5033;46.310;11.214;2023-08-30T09:53:06;22.30;99.90
9987;DHT22;5033;46.310;11.214;2023-08-30T09:55:33;22.30;99.90
9987;DHT22;5033;46.310;11.214;2023-08-30T09:58:02;22.40;99.90
9987;DHT22;5033;46.310;11.214;2023-08-30T10:00:32;22.20;99.90
9987;DHT22;5033;46.310;11.214;2023-08-30T10:02:59;22.20;99.90
9987;DHT22;5033;46.310;11.214;2023-08-30T10:05:27;22.50;99.90
9987;DHT22;5033;46.310;11.214;2023-08-30T10:07:56;22.70;99.90
9987;DHT22;5033;46.310;11.214;2023-08-30T10:10:23;22.90;99.90
9987;DHT22;5033;46.310;11.214;2023-08-30T10:12:51;23.00;99.90
9987;DHT22;5033;46.310;11.214;2023-08-30T10:15:21;23.00;99.90
9987;DHT22;5033;46.310;11.214;2023-08-30T10:17:52;22.80;99.90
9987;DHT22;5033;46.310;11.214;2023-08-30T10:20:20;22.80;99.90
9987;DHT22;5033;46.310;11.214;2023-08-30T10:22:49;22.80;99.90
9987;DHT22;5033;46.310;11.214;2023-08-30T10:25:19;22.90;99.90
9987;DHT22;5033;46.310;11.214;2023-08-30T10:27:49;23.10;99.90
9987;DHT22;5033;46.310;11.214;2023-08-30T10:30:18;23.20;99.90
9987;DHT22;5033;46.310;11.214;2023-08-30T10:32:45;23.30;99.90
9987;DHT22;5033;46.310;11.214;2023-08-30T10:35:15;23.50;99.90
9987;DHT22;5033;46.310;11.214;2023-08-30T10:37:53;23.40;99.90
9987;DHT22;5033;46.310;11.214;2023-08-30T10:40:20;23.40;99.90
9987;DHT22;5033;46.310;11.214;2023-08-30T10:42:57;23.40;99.90
9987;DHT22;5033;46.310;11.214;2023-08-30T10:45:24;23.30;99.90
9987;DHT22;5033;46.310;11.214;2023-08-30T10:47:55;23.40;99.90
9987;DHT22;5033;46.310;11.214;2023-08-30T10:50:29;23.60;99.90
9987;DHT22;5033;46.310;11.214;2023-08-30T10:52:57;23.50;99.90
9987;DHT22;5033;46.310;11.214;2023-08-30T10:55:25;23.70;99.90
9987;DHT22;5033;46.310;11.214;2023-08-30T10:58:00;24.00;99.90
9987;DHT22;5033;46.310;11.214;2023-08-30T11:00:28;24.60;99.90
9987;DHT22;5033;46.310;11.214;2023-08-30T11:02:56;24.90;99.90
9987;DHT22;5033;46.310;11.214;2023-08-30T11:05:25;25.00;99.90
9987;DHT22;5033;46.310;11.214;2023-08-30T11:07:54;24.80;99.90
9987;DHT22;5033;46.310;11.214;2023-08-30T11:10:21;24.60;99.90
9987;DHT22;5033;46.310;11.214;2023-08-30T11:12:49;24.60;99.90
9987;DHT22;5033;46.310;11.214;2023-08-30T11:15:16;24.70;99.90
9987;DHT22;5033;46.310;11.214;2023-08-30T11:17:44;24.90;99.90
9987;DHT22;5033;46.310;11.214;2023-08-30T11:20:12;24.80;99.90
9987;DHT22;5033;46.310;11.214;2023-08-30T11:22:41;24.80;99.90
9987;DHT22;5033;46.310;11.214;2023-08-30T11:25:11;25.00;99.90
9987;DHT22;5033;46.310;11.214;2023-08-30T11:27:39;25.00;99.90
9987;DHT22;5033;46.310;11.214;2023-08-30T11:30:07;25.20;99.90
9987;DHT22;5033;46.310;11.214;2023-08-30T11:32:34;25.30;99.90
9987;DHT22;5033;46.310;11.214;2023-08-30T11:35:03;25.30;99.90
9987;DHT22;5033;46.310;11.214;2023-08-30T11:37:31;25.40;99.90
9987;DHT22;5033;46.310;11.214;2023-08-30T11:39:58;25.80;99.90
9987;DHT22;5033;46.310;11.214;2023-08-30T11:42:27;25.90;99.90
9987;DHT22;5033;46.310;11.214;2023-08-30T11:44:54;25.60;99.90
9987;DHT22;5033;46.310;11.214;2023-08-30T11:47:23;25.50;99.90
9987;DHT22;5033;46.310;11.214;2023-08-30T11:49:52;25.60;99.90
9987;DHT22;5033;46.310;11.214;2023-08-30T11:52:19;25.50;99.90
9987;DHT22;5033;46.310;11.214;2023-08-30T11:54:47;25.50;99.90
9987;DHT22;5033;46.310;11.214;2023-08-30T11:57:14;25.50;99.90
9987;DHT22;5033;46.310;11.214;2023-08-30T11:59:43;25.40;99.90
9987;DHT22;5033;46.310;11.214;2023-08-30T12:02:12;25.00;99.90
9987;DHT22;5033;46.310;11.214;2023-08-30T12:04:42;25.00;99.90
9987;DHT22;5033;46.310;11.214;2023-08-30T12:07:20;24.80;99.90
9987;DHT22;5033;46.310;11.214;2023-08-30T12:09:48;24.60;99.90
9987;DHT22;5033;46.310;11.214;2023-08-30T12:12:15;24.20;99.90
9987;DHT22;5033;46.310;11.214;2023-08-30T12:14:43;24.00;99.90
9987;DHT22;5033;46.310;11.214;2023-08-30T12:17:10;23.80;99.90
9987;DHT22;5033;46.310;11.214;2023-08-30T12:19:38;23.60;99.90
9987;DHT22;5033;46.310;11.214;2023-08-30T12:22:06;23.40;99.90
9987;DHT22;5033;46.310;11.214;2023-08-30T12:24:43;23.20;99.90
9987;DHT22;5033;46.310;11.214;2023-08-30T12:27:10;23.10;99.90
9987;DHT22;5033;46.310;11.214;2023-08-30T12:29:37;23.00;99.90
9987;DHT22;5033;46.310;11.214;2023-08-30T12:32:06;23.00;99.90
9987;DHT22;5033;46.310;11.214;2023-08-30T12:34:33;22.90;99.90
9987;DHT22;5033;46.310;11.214;2023-08-30T12:37:01;22.80;99.90
9987;DHT22;5033;46.310;11.214;2023-08-30T12:39:28;22.80;99.90
9987;DHT22;5033;46.310;11.214;2023-08-30T12:41:55;22.80;99.90
9987;DHT22;5033;46.310;11.214;2023-08-30T12:44:22;22.90;99.90
9987;DHT22;5033;46.310;11.214;2023-08-30T12:46:49;23.00;99.90
9987;DHT22;5033;46.310;11.214;2023-08-30T12:49:18;23.20;99.90
9987;DHT22;5033;46.310;11.214;2023-08-30T12:51:44;23.40;99.90
9987;DHT22;5033;46.310;11.214;2023-08-30T12:54:11;23.50;99.90
9987;DHT22;5033;46.310;11.214;2023-08-30T12:56:38;23.60;99.90
9987;DHT22;5033;46.310;11.214;2023-08-30T12:59:05;23.60;99.90
9987;DHT22;5033;46.310;11.214;2023-08-30T13:01:32;23.60;99.90
9987;DHT22;5033;46.310;11.214;2023-08-30T13:03:59;23.60;99.90
9987;DHT22;5033;46.310;11.214;2023-08-30T13:06:27;23.50;99.90
9987;DHT22;5033;46.310;11.214;2023-08-30T13:08:54;23.60;99.90
9987;DHT22;5033;46.310;11.214;2023-08-30T13:11:22;23.70;99.90
9987;DHT22;5033;46.310;11.214;2023-08-30T13:13:51;23.80;99.90
9987;DHT22;5033;46.310;11.214;2023-08-30T13:16:18;23.80;99.90
9987;DHT22;5033;46.310;11.214;2023-08-30T13:18:45;23.80;99.90
9987;DHT22;5033;46.310;11.214;2023-08-30T13:21:12;23.70;99.90
9987;DHT22;5033;46.310;11.214;2023-08-30T13:23:40;23.80;99.90
9987;DHT22;5033;46.310;11.214;2023-08-30T13:26:07;23.90;99.90
9987;DHT22;5033;46.310;11.214;2023-08-30T13:28:35;24.10;99.90
9987;DHT22;5033;46.310;11.214;2023-08-30T13:31:02;24.10;99.90
9987;DHT22;5033;46.310;11.214;2023-08-30T13:33:29;24.10;99.90
9987;DHT22;5033;46.310;11.214;2023-08-30T13:35:56;24.10;99.90
9987;DHT22;5033;46.310;11.214;2023-08-30T13:38:23;24.10;99.90
9987;DHT22;5033;46.310;11.214;2023-08-30T13:40:58;24.10;99.90
9987;DHT22;5033;46.310;11.214;2023-08-30T13:43:25;24.10;99.90
9987;DHT22;5033;46.310;11.214;2023-08-30T13:45:57;24.20;99.90
9987;DHT22;5033;46.310;11.214;2023-08-30T13:48:24;24.20;99.90
9987;DHT22;5033;46.310;11.214;2023-08-30T13:50:51;24.00;99.90
9987;DHT22;5033;46.310;11.214;2023-08-30T13:53:18;23.80;99.90
9987;DHT22;5033;46.310;11.214;2023-08-30T13:55:45;23.70;99.90
9987;DHT22;5033;46.310;11.214;2023-08-30T13:58:15;23.50;99.90
9987;DHT22;5033;46.310;11.214;2023-08-30T14:00:44;23.50;99.90
9987;DHT22;5033;46.310;11.214;2023-08-30T14:03:11;23.50;99.90
9987;DHT22;5033;46.310;11.214;2023-08-30T14:05:38;23.60;99.90
9987;DHT22;5033;46.310;11.214;2023-08-30T14:08:06;23.60;99.90
9987;DHT22;5033;46.310;11.214;2023-08-30T14:10:33;23.70;99.90
9987;DHT22;5033;46.310;11.214;2023-08-30T14:13:01;23.70;99.90
9987;DHT22;5033;46.310;11.214;2023-08-30T14:15:29;23.70;99.90
9987;DHT22;5033;46.310;11.214;2023-08-30T14:17:56;23.70;99.90
9987;DHT22;5033;46.310;11.214;2023-08-30T14:20:23;23.60;99.90
9987;DHT22;5033;46.310;11.214;2023-08-30T14:22:50;23.60;99.90
9987;DHT22;5033;46.310;11.214;2023-08-30T14:25:17;23.50;99.90
9987;DHT22;5033;46.310;11.214;2023-08-30T14:27:44;23.40;99.90
9987;DHT22;5033;46.310;11.214;2023-08-30T14:30:11;23.50;99.90
9987;DHT22;5033;46.310;11.214;2023-08-30T14:32:39;23.50;99.90
9987;DHT22;5033;46.310;11.214;2023-08-30T14:35:09;23.50;99.90
9987;DHT22;5033;46.310;11.214;2023-08-30T14:37:37;23.60;99.90
9987;DHT22;5033;46.310;11.214;2023-08-30T14:40:06;23.50;99.90
9987;DHT22;5033;46.310;11.214;2023-08-30T14:42:33;23.60;99.90
9987;DHT22;5033;46.310;11.214;2023-08-30T14:45:00;23.60;99.90
9987;DHT22;5033;46.310;11.214;2023-08-30T14:47:29;23.60;99.90
9987;DHT22;5033;46.310;11.214;2023-08-30T14:49:58;23.70;99.90
9987;DHT22;5033;46.310;11.214;2023-08-30T14:52:26;23.70;99.90
9987;DHT22;5033;46.310;11.214;2023-08-30T14:54:53;23.80;99.90
9987;DHT22;5033;46.310;11.214;2023-08-30T14:57:20;24.00;99.90
9987;DHT22;5033;46.310;11.214;2023-08-30T14:59:47;24.20;99.90
9987;DHT22;5033;46.310;11.214;2023-08-30T15:02:14;24.30;99.90
9987;DHT22;5033;46.310;11.214;2023-08-30T15:04:41;24.40;99.90
9987;DHT22;5033;46.310;11.214;2023-08-30T15:07:10;24.30;99.90
9987;DHT22;5033;46.310;11.214;2023-08-30T15:09:37;24.30;99.90
9987;DHT22;5033;46.310;11.214;2023-08-30T15:12:05;24.30;99.90
9987;DHT22;5033;46.310;11.214;2023-08-30T15:14:32;24.20;99.90
9987;DHT22;5033;46.310;11.214;2023-08-30T15:16:59;24.10;99.90
9987;DHT22;5033;46.310;11.214;2023-08-30T15:19:26;24.00;99.90
9987;DHT22;5033;46.310;11.214;2023-08-30T15:21:53;24.10;99.90
9987;DHT22;5033;46.310;11.214;2023-08-30T15:24:21;24.10;99.90
9987;DHT22;5033;46.310;11.214;2023-08-30T15:26:48;24.10;99.90
9987;DHT22;5033;46.310;11.214;2023-08-30T15:29:15;24.00;99.90
9987;DHT22;5033;46.310;11.214;2023-08-30T15:31:43;23.90;99.90
9987;DHT22;5033;46.310;11.214;2023-08-30T15:34:11;23.60;99.90
9987;DHT22;5033;46.310;11.214;2023-08-30T15:36:38;23.30;99.90
9987;DHT22;5033;46.310;11.214;2023-08-30T15:39:05;23.00;99.90
9987;DHT22;5033;46.310;11.214;2023-08-30T15:41:35;22.70;99.90
9987;DHT22;5033;46.310;11.214;2023-08-30T15:44:03;22.50;99.90
9987;DHT22;5033;46.310;11.214;2023-08-30T15:46:30;22.40;99.90
9987;DHT22;5033;46.310;11.214;2023-08-30T15:48:57;22.30;99.90